Mineral Wells, Mississippi
Current Conditions -  °F | °C
As of 10:50 AM on Thursday 23 Oct 2014 (Local Time) from KOLV Reporting Station
Broken Clouds Broken Clouds  
Wind Chill: 54°   Ceiling: 25000
Heat Index: 54°   Visibility: 10mi
Dew Point: 48°   Wind: 5mph
Humidity: 82%   Direction: 90°E
Pressure: 30.22"   Gusts: NA
Location:  34.942°N, 89.5387°W
Report Text: KOLV 231550Z 09004KT 10SM FEW150 BKN250 12/09 A3022
Loading
Personal Weather Stations






























Interactive Weather Map
Tropical Storm Tracking
New forecast layout! Learn more

10-Day Weather Forecast

Advertisements
Track Severe Weather on mobile